»·PEaware :: N420EP L88-KSBP

N420EP :: L88-KSBP

FLIGHT INFORMATION

Flight Status: Arrived
Operator: Privately registered:
United States
More flights under this callsign
Pilot: Leo H. (27812)
Aircraft: CESSNA 172 SKYHAWK
(C172)
More flights by this aircraft type
Origin: L88 New Cuyama
United States
Destination: KSBP San Luis Co Regl
United States
More flights between these airports :: More routes between these airports
Route: L88 KSBP
File this flight plan on PilotEdge
Remarks: CAT 2
Altitude:
(Current/Filed)
6,500ft
Speed:
(Current/Filed)
110kts
Departed: 08-Feb-20 05:59 PM
Arrived: 08-Feb-20 06:34 PM
Distance/Time
Traveled:
50nm/0:35
Distance/Time
To Go:
Arrived

Flight Plot

Page will automatically refresh every two minutes.


Map Options




Map Legend


Flown Route
Filed Route
Departure Airport
Arrival Airport
Navaid (VOR, NDB)
Fix

Horizontal Profiles

Position Reports

Time Latitude Longitude Heading Altitude Ground
Speed
08-Feb-20 17:31 34.942314 -119.690571 198 2207ft 0kts
08-Feb-20 17:32 34.942314 -119.690571 198 2207ft 0kts
08-Feb-20 17:33 34.942314 -119.690571 198 2207ft 0kts
08-Feb-20 17:36 34.942382 -119.690534 204 2207ft 0kts
08-Feb-20 17:37 34.942381 -119.690534 204 2207ft 0kts
08-Feb-20 17:38 34.942359 -119.690547 205 2207ft 0kts
08-Feb-20 17:39 34.942359 -119.690547 205 2207ft 0kts
08-Feb-20 17:40 34.942359 -119.690547 205 2207ft 0kts
08-Feb-20 17:41 34.942359 -119.690547 205 2207ft 0kts
08-Feb-20 17:42 34.942359 -119.690547 205 2207ft 0kts
08-Feb-20 17:43 34.942359 -119.690547 205 2207ft 0kts
08-Feb-20 17:44 34.942359 -119.690547 205 2207ft 0kts
08-Feb-20 17:45 34.942359 -119.690547 205 2207ft 0kts
08-Feb-20 17:46 34.942359 -119.690547 205 2207ft 0kts
08-Feb-20 17:47 34.942359 -119.690547 205 2207ft 0kts
08-Feb-20 17:48 34.942359 -119.690547 205 2207ft 0kts
08-Feb-20 17:49 34.942359 -119.690547 205 2207ft 0kts
08-Feb-20 17:50 34.942359 -119.690547 205 2207ft 0kts
08-Feb-20 17:51 34.942359 -119.690547 205 2207ft 0kts
08-Feb-20 17:52 34.942359 -119.690547 205 2207ft 0kts
08-Feb-20 17:53 34.942359 -119.690547 205 2207ft 0kts
08-Feb-20 17:54 34.942359 -119.690547 205 2207ft 0kts
08-Feb-20 17:55 34.941283 -119.688884 114 2207ft 22kts
08-Feb-20 17:56 34.938040 -119.681058 117 2207ft 15kts
08-Feb-20 17:57 34.937827 -119.680392 293 2207ft 0kts
08-Feb-20 17:58 34.943469 -119.692983 295 2689ft 64kts
08-Feb-20 17:59 34.953318 -119.712019 298 3584ft 67kts
08-Feb-20 18:00 34.964379 -119.730107 303 4438ft 66kts
08-Feb-20 18:01 34.973699 -119.746113 298 5138ft 66kts
08-Feb-20 18:02 34.983203 -119.765113 297 5896ft 65kts
08-Feb-20 18:03 34.990926 -119.785061 292 6603ft 65kts
08-Feb-20 18:04 34.999936 -119.809552 295 6541ft 99kts
08-Feb-20 18:05 35.013215 -119.838965 297 6506ft 100kts
08-Feb-20 18:06 35.026025 -119.869132 299 6473ft 100kts
08-Feb-20 18:08 35.038388 -119.899435 294 6459ft 99kts
08-Feb-20 18:09 35.050368 -119.930100 297 6428ft 99kts
08-Feb-20 18:10 35.062863 -119.960257 298 6404ft 99kts
08-Feb-20 18:11 35.075136 -119.990454 298 6384ft 99kts
08-Feb-20 18:12 35.089451 -120.019140 301 6402ft 95kts
08-Feb-20 18:13 35.102929 -120.047166 302 6411ft 97kts
08-Feb-20 18:14 35.118869 -120.073719 309 6456ft 96kts
08-Feb-20 18:15 35.136960 -120.097740 315 6489ft 95kts
08-Feb-20 18:16 35.155905 -120.120611 317 6521ft 95kts
08-Feb-20 18:17 35.168250 -120.149041 280 6536ft 101kts
08-Feb-20 18:18 35.167578 -120.183608 276 6567ft 102kts
08-Feb-20 18:19 35.166693 -120.218339 274 6327ft 104kts
08-Feb-20 18:20 35.166363 -120.253054 278 5955ft 102kts
08-Feb-20 18:21 35.167804 -120.287318 279 5600ft 101kts
08-Feb-20 18:22 35.168782 -120.321548 279 5210ft 100kts
08-Feb-20 18:23 35.171085 -120.355310 282 4809ft 99kts
08-Feb-20 18:24 35.175914 -120.388082 286 4429ft 98kts
08-Feb-20 18:25 35.178512 -120.420441 278 4081ft 99kts
08-Feb-20 18:26 35.178473 -120.454173 273 3506ft 100kts
08-Feb-20 18:27 35.177861 -120.487808 277 3013ft 98kts
08-Feb-20 18:27 35.179639 -120.515252 284 2637ft 96kts
08-Feb-20 18:28 35.183967 -120.547448 290 2201ft 95kts
08-Feb-20 18:30 35.198726 -120.573950 308 1805ft 75kts
08-Feb-20 18:30 35.208754 -120.591027 309 1327ft 75kts
08-Feb-20 18:31 35.219993 -120.610906 306 694ft 69kts
08-Feb-20 18:32 35.229978 -120.628163 308 422ft 61kts
08-Feb-20 18:33 35.237151 -120.639954 1 216ft 13kts
08-Feb-20 18:34 35.237390 -120.639927 7 216ft 0kts
08-Feb-20 18:35 35.237390 -120.639927 7 216ft 0kts
08-Feb-20 18:36 35.237390 -120.639927 7 216ft 0kts
08-Feb-20 18:37 35.237390 -120.639927 7 216ft 0kts
08-Feb-20 18:38 35.238161 -120.640008 285 216ft 0kts
08-Feb-20 18:39 35.238161 -120.640008 285 216ft 0kts
08-Feb-20 18:40 35.238161 -120.640008 285 216ft 0kts
08-Feb-20 18:41 35.238161 -120.640008 285 216ft 0kts
08-Feb-20 18:42 35.238161 -120.640008 285 216ft 0kts
08-Feb-20 18:43 35.216071 -120.603777 309 941ft 69kts
08-Feb-20 18:44 35.226400 -120.621990 307 532ft 59kts
08-Feb-20 18:45 35.235612 -120.637988 306 216ft 41kts
08-Feb-20 18:46 35.238161 -120.640008 285 216ft 0kts
08-Feb-20 18:47 35.238161 -120.640008 285 216ft 0kts

Navigation Log

Ident Type
Flight plan parsing failed, navigation log unavailable